createdAt,value
2023-05-17T00:00:05.289Z,13.13
2023-05-17T00:01:05.288Z,13.06
2023-05-17T00:02:05.261Z,13.16
2023-05-17T00:03:05.319Z,13.06
2023-05-17T00:04:05.270Z,12.99
2023-05-17T00:05:05.315Z,13.02
2023-05-17T00:06:05.261Z,13.02
2023-05-17T00:07:05.218Z,13.05
2023-05-17T00:08:05.327Z,12.95
2023-05-17T00:09:05.187Z,12.95
2023-05-17T00:10:05.179Z,12.93
2023-05-17T00:11:05.168Z,13.01
2023-05-17T00:12:05.156Z,12.99
2023-05-17T00:13:05.172Z,12.91
2023-05-17T00:14:05.133Z,12.93
2023-05-17T00:15:05.142Z,12.95
2023-05-17T00:16:05.116Z,12.91
2023-05-17T00:17:05.114Z,12.93
2023-05-17T00:18:05.141Z,12.91
2023-05-17T00:19:05.161Z,12.88
2023-05-17T00:20:05.088Z,12.86
2023-05-17T00:21:05.055Z,12.88
2023-05-17T00:22:05.046Z,12.76
2023-05-17T00:23:05.032Z,12.80
2023-05-17T00:24:05.121Z,12.79
2023-05-17T00:25:05.041Z,12.80
2023-05-17T00:26:04.998Z,12.83
2023-05-17T00:27:04.990Z,12.83
2023-05-17T00:28:04.975Z,12.71
2023-05-17T00:29:04.981Z,12.73
2023-05-17T00:30:04.975Z,12.76
2023-05-17T00:31:04.946Z,12.73
2023-05-17T00:32:04.937Z,12.68
2023-05-17T00:33:04.995Z,12.72
2023-05-17T00:34:04.919Z,12.68
2023-05-17T00:35:04.964Z,12.61
2023-05-17T00:36:04.899Z,12.69
2023-05-17T00:37:04.876Z,12.61
2023-05-17T00:38:04.898Z,12.65
2023-05-17T00:39:04.856Z,12.65
2023-05-17T00:40:04.983Z,12.58
2023-05-17T00:41:04.828Z,12.62
2023-05-17T00:42:04.838Z,12.61
2023-05-17T00:43:04.809Z,12.58
2023-05-17T00:44:04.846Z,12.62
2023-05-17T00:45:04.796Z,12.58
2023-05-17T00:46:04.785Z,12.55
2023-05-17T00:47:04.820Z,12.55
2023-05-17T00:48:04.867Z,12.48
2023-05-17T00:49:04.791Z,12.54
2023-05-17T00:50:04.769Z,12.53
2023-05-17T00:51:04.725Z,12.51
2023-05-17T00:52:04.759Z,12.48
2023-05-17T00:53:04.700Z,12.50
2023-05-17T00:54:04.726Z,12.50
2023-05-17T00:55:04.736Z,12.51
2023-05-17T00:56:04.784Z,12.48
2023-05-17T00:57:04.680Z,12.46
2023-05-17T00:58:04.701Z,12.48
2023-05-17T00:59:04.658Z,12.50
2023-05-17T01:00:04.660Z,12.44
2023-05-17T01:01:04.643Z,12.41
2023-05-17T01:02:04.647Z,12.38
2023-05-17T01:03:04.673Z,12.44
2023-05-17T01:04:04.744Z,12.35
2023-05-17T01:05:04.718Z,12.33
2023-05-17T01:06:04.575Z,12.41
2023-05-17T01:07:04.573Z,12.33
2023-05-17T01:08:04.596Z,12.35
2023-05-17T01:09:04.534Z,12.40
2023-05-17T01:10:04.533Z,12.35
2023-05-17T01:11:04.500Z,12.33
2023-05-17T01:12:04.512Z,12.35
2023-05-17T01:13:04.518Z,12.40
2023-05-17T01:14:04.476Z,12.38
2023-05-17T01:15:04.463Z,12.35
2023-05-17T01:16:04.482Z,12.26
2023-05-17T01:17:04.444Z,12.28
2023-05-17T01:18:04.481Z,12.23
2023-05-17T01:19:04.557Z,12.22
2023-05-17T01:20:04.508Z,12.26
2023-05-17T01:21:04.426Z,12.22
2023-05-17T01:22:04.393Z,12.26
2023-05-17T01:23:04.386Z,12.29
2023-05-17T01:24:04.357Z,12.15
2023-05-17T01:25:04.356Z,12.14
2023-05-17T01:26:04.341Z,12.21
2023-05-17T01:27:04.350Z,12.26
2023-05-17T01:28:04.426Z,12.15
2023-05-17T01:29:04.316Z,12.14
2023-05-17T01:30:04.322Z,12.14
2023-05-17T01:31:04.293Z,12.21
2023-05-17T01:32:04.276Z,12.18
2023-05-17T01:33:04.355Z,12.18
2023-05-17T01:34:04.266Z,12.17
2023-05-17T01:35:04.271Z,12.15
2023-05-17T01:36:04.229Z,12.05
2023-05-17T01:37:04.227Z,12.11
2023-05-17T01:38:04.209Z,11.99
2023-05-17T01:39:04.207Z,11.97
2023-05-17T01:40:04.193Z,12.04
2023-05-17T01:41:04.211Z,12.00
2023-05-17T01:42:04.168Z,12.04
2023-05-17T01:43:04.160Z,12.05
2023-05-17T01:44:04.170Z,12.00
2023-05-17T01:45:04.137Z,12.08
2023-05-17T01:46:04.148Z,11.99
2023-05-17T01:47:04.111Z,11.99
2023-05-17T01:48:04.172Z,12.04
2023-05-17T01:49:04.130Z,11.95
2023-05-17T01:50:04.081Z,11.97
2023-05-17T01:51:04.098Z,11.87
2023-05-17T01:52:04.062Z,11.89
2023-05-17T01:53:04.046Z,11.88
2023-05-17T01:54:04.035Z,11.96
2023-05-17T01:55:04.033Z,11.89
2023-05-17T01:56:04.039Z,11.95
2023-05-17T01:57:04.008Z,11.88
2023-05-17T01:58:04.005Z,11.93
2023-05-17T01:59:04.011Z,11.91
2023-05-17T02:00:04.020Z,11.91
2023-05-17T02:01:03.967Z,11.89
2023-05-17T02:02:03.967Z,11.99
2023-05-17T02:03:03.986Z,11.88
2023-05-17T02:04:04.059Z,11.97
2023-05-17T02:05:03.966Z,11.85
2023-05-17T02:06:03.935Z,11.93
2023-05-17T02:07:03.924Z,11.79
2023-05-17T02:08:03.877Z,11.76
2023-05-17T02:09:03.897Z,11.80
2023-05-17T02:10:03.952Z,11.85
2023-05-17T02:11:03.865Z,11.82
2023-05-17T02:12:03.836Z,11.80
2023-05-17T02:13:03.830Z,11.79
2023-05-17T02:14:03.818Z,11.89
2023-05-17T02:15:03.830Z,11.77
2023-05-17T02:16:03.921Z,11.80
2023-05-17T02:17:03.795Z,11.82
2023-05-17T02:18:03.831Z,11.82
2023-05-17T02:19:03.801Z,11.71
2023-05-17T02:20:03.753Z,11.77
2023-05-17T02:21:03.775Z,11.70
2023-05-17T02:22:03.753Z,11.73
2023-05-17T02:23:03.720Z,11.69
2023-05-17T02:24:03.711Z,11.73
2023-05-17T02:25:03.717Z,11.80
2023-05-17T02:26:03.709Z,11.71
2023-05-17T02:27:03.715Z,11.77
2023-05-17T02:28:03.677Z,11.74
2023-05-17T02:29:03.662Z,11.77
2023-05-17T02:30:03.648Z,11.76
2023-05-17T02:31:03.651Z,11.73
2023-05-17T02:32:03.745Z,11.67
2023-05-17T02:33:03.686Z,11.64
2023-05-17T02:34:03.666Z,11.61
2023-05-17T02:35:03.597Z,11.61
2023-05-17T02:36:03.603Z,11.66
2023-05-17T02:37:03.599Z,11.66
2023-05-17T02:38:03.561Z,11.71
2023-05-17T02:39:03.557Z,11.59
2023-05-17T02:40:03.540Z,11.66
2023-05-17T02:41:03.543Z,11.64
2023-05-17T02:42:03.551Z,11.64
2023-05-17T02:43:03.555Z,11.70
2023-05-17T02:44:03.517Z,11.55
2023-05-17T02:45:03.503Z,11.64
2023-05-17T02:46:03.477Z,11.70
2023-05-17T02:47:03.541Z,11.69
2023-05-17T02:48:03.623Z,11.66
2023-05-17T02:49:03.442Z,11.67
2023-05-17T02:50:03.428Z,11.56
2023-05-17T02:51:03.439Z,11.52
2023-05-17T02:52:03.408Z,11.62
2023-05-17T02:53:03.417Z,11.59
2023-05-17T02:54:03.384Z,11.61
2023-05-17T02:55:03.375Z,11.55
2023-05-17T02:56:03.381Z,11.59
2023-05-17T02:57:03.357Z,11.64
2023-05-17T02:58:03.374Z,11.52
2023-05-17T02:59:03.344Z,11.59
2023-05-17T03:00:03.320Z,11.55
2023-05-17T03:01:03.325Z,11.59
2023-05-17T03:02:03.308Z,11.52
2023-05-17T03:03:03.356Z,11.55
2023-05-17T03:04:03.716Z,11.59
2023-05-17T03:05:03.277Z,11.51
2023-05-17T03:06:03.253Z,11.66
2023-05-17T03:07:05.073Z,11.62
2023-05-17T03:08:03.270Z,11.64
2023-05-17T03:09:03.235Z,11.62
2023-05-17T03:10:03.208Z,11.55
2023-05-17T03:11:03.213Z,11.61
2023-05-17T03:12:03.196Z,11.61
2023-05-17T03:13:03.224Z,11.56
2023-05-17T03:14:03.165Z,11.52
2023-05-17T03:15:03.161Z,11.59
2023-05-17T03:16:03.149Z,11.66
2023-05-17T03:17:03.152Z,11.67
2023-05-17T03:18:03.283Z,11.54
2023-05-17T03:19:03.303Z,11.61
2023-05-17T03:20:03.211Z,11.62
2023-05-17T03:21:03.094Z,11.58
2023-05-17T03:22:03.085Z,11.58
2023-05-17T03:23:03.074Z,11.61
2023-05-17T03:24:03.060Z,11.64
2023-05-17T03:25:03.074Z,11.58
2023-05-17T03:26:03.050Z,11.67
2023-05-17T03:27:03.042Z,11.56
2023-05-17T03:28:03.014Z,11.62
2023-05-17T03:29:03.036Z,11.61
2023-05-17T03:30:03.016Z,11.61
2023-05-17T03:31:03.028Z,11.58
2023-05-17T03:32:02.985Z,11.64
2023-05-17T03:33:03.056Z,11.74
2023-05-17T03:34:03.033Z,11.56
2023-05-17T03:35:02.972Z,11.59
2023-05-17T03:36:03.045Z,11.64
2023-05-17T03:37:02.927Z,11.61
2023-05-17T03:38:02.933Z,11.62
2023-05-17T03:39:02.901Z,11.69
2023-05-17T03:40:02.883Z,11.56
2023-05-17T03:41:02.878Z,11.56
2023-05-17T03:42:02.866Z,11.55
2023-05-17T03:43:02.863Z,11.67
2023-05-17T03:44:02.868Z,11.55
2023-05-17T03:45:02.845Z,11.56
2023-05-17T03:46:02.838Z,11.64
2023-05-17T03:47:02.853Z,11.55
2023-05-17T03:48:02.815Z,11.58
2023-05-17T03:49:02.836Z,11.67
2023-05-17T03:50:02.781Z,11.56
2023-05-17T03:51:02.775Z,11.70
2023-05-17T03:52:02.878Z,11.56
2023-05-17T03:53:02.760Z,11.64
2023-05-17T03:54:02.756Z,11.67
2023-05-17T03:55:02.740Z,11.56
2023-05-17T03:56:02.737Z,11.58
2023-05-17T03:57:02.727Z,11.59
2023-05-17T03:58:02.690Z,11.70
2023-05-17T03:59:02.707Z,11.64
2023-05-17T04:00:02.690Z,11.66
2023-05-17T04:01:02.680Z,11.64
2023-05-17T04:02:02.652Z,11.71
2023-05-17T04:03:02.692Z,11.69
2023-05-17T04:04:02.671Z,11.61
2023-05-17T04:05:02.683Z,11.61
2023-05-17T04:06:02.628Z,11.62
2023-05-17T04:07:02.604Z,11.62
2023-05-17T04:08:02.682Z,11.58
2023-05-17T04:09:02.594Z,11.59
2023-05-17T04:10:02.574Z,11.62
2023-05-17T04:11:02.569Z,11.59
2023-05-17T04:12:02.543Z,11.66
2023-05-17T04:13:02.538Z,11.70
2023-05-17T04:14:02.559Z,11.66
2023-05-17T04:15:02.506Z,11.69
2023-05-17T04:16:02.501Z,11.66
2023-05-17T04:17:02.503Z,11.67
2023-05-17T04:18:02.561Z,11.66
2023-05-17T04:19:02.560Z,11.66
2023-05-17T04:20:02.473Z,11.66
2023-05-17T04:21:02.456Z,11.62
2023-05-17T04:22:02.438Z,11.71
2023-05-17T04:23:02.448Z,11.70
2023-05-17T04:24:02.626Z,11.67
2023-05-17T04:25:02.405Z,11.67
2023-05-17T04:26:02.392Z,11.67
2023-05-17T04:27:03.641Z,11.61
2023-05-17T04:28:02.385Z,11.64
2023-05-17T04:29:02.380Z,11.66
2023-05-17T04:30:02.377Z,11.61
2023-05-17T04:31:02.347Z,11.70
2023-05-17T04:32:02.326Z,11.62
2023-05-17T04:33:02.408Z,11.64
2023-05-17T04:34:02.358Z,11.62
2023-05-17T04:35:02.302Z,11.71
2023-05-17T04:36:02.280Z,11.66
2023-05-17T04:37:02.285Z,11.66
2023-05-17T04:38:02.292Z,11.67
2023-05-17T04:39:02.259Z,11.67
2023-05-17T04:40:02.456Z,11.73
2023-05-17T04:41:02.254Z,11.66
2023-05-17T04:42:02.250Z,11.74
2023-05-17T04:43:02.276Z,11.84
2023-05-17T04:44:02.253Z,11.74
2023-05-17T04:45:02.219Z,11.70
2023-05-17T04:46:02.178Z,11.74
2023-05-17T04:47:02.186Z,11.74
2023-05-17T04:48:02.241Z,11.73
2023-05-17T04:49:02.199Z,11.73
2023-05-17T04:50:02.133Z,11.76
2023-05-17T04:51:02.128Z,11.73
2023-05-17T04:52:04.645Z,11.76
2023-05-17T04:53:02.123Z,11.73
2023-05-17T04:54:02.108Z,11.67
2023-05-17T04:55:02.091Z,11.79
2023-05-17T04:56:02.275Z,11.87
2023-05-17T04:57:02.113Z,11.77
2023-05-17T04:58:02.064Z,11.88
2023-05-17T04:59:02.081Z,11.82
2023-05-17T05:00:02.030Z,11.79
2023-05-17T05:01:02.031Z,11.84
2023-05-17T05:02:02.019Z,11.80
2023-05-17T05:03:02.052Z,11.80
2023-05-17T05:04:02.306Z,11.87
2023-05-17T05:05:02.154Z,11.80
2023-05-17T05:06:01.973Z,11.80
2023-05-17T05:07:01.958Z,11.80
2023-05-17T05:08:01.937Z,11.93
2023-05-17T05:09:01.959Z,11.93
2023-05-17T05:10:01.962Z,11.93
2023-05-17T05:11:01.913Z,11.89
2023-05-17T05:12:01.913Z,11.96
2023-05-17T05:13:01.885Z,11.89
2023-05-17T05:14:01.914Z,11.88
2023-05-17T05:15:01.875Z,11.84
2023-05-17T05:16:01.856Z,12.00
2023-05-17T05:17:01.839Z,11.91
2023-05-17T05:18:02.019Z,11.88
2023-05-17T05:19:02.099Z,11.88
2023-05-17T05:20:01.897Z,12.00
2023-05-17T05:21:01.795Z,12.00
2023-05-17T05:22:01.781Z,12.04
2023-05-17T05:23:01.774Z,11.97
2023-05-17T05:24:01.761Z,12.07
2023-05-17T05:25:01.776Z,12.08
2023-05-17T05:26:01.793Z,11.97
2023-05-17T05:27:01.728Z,12.14
2023-05-17T05:28:01.887Z,12.15
2023-05-17T05:29:01.740Z,12.17
2023-05-17T05:30:01.697Z,12.11
2023-05-17T05:31:01.686Z,12.15
2023-05-17T05:32:01.683Z,12.11
2023-05-17T05:33:01.788Z,12.23
2023-05-17T05:34:01.747Z,12.26
2023-05-17T05:35:01.636Z,12.25
2023-05-17T05:36:01.654Z,12.26
2023-05-17T05:37:01.623Z,12.30
2023-05-17T05:38:01.612Z,12.28
2023-05-17T05:39:01.635Z,12.35
2023-05-17T05:40:01.588Z,12.38
2023-05-17T05:41:01.580Z,12.36
2023-05-17T05:42:01.586Z,12.44
2023-05-17T05:43:01.566Z,12.30
2023-05-17T05:44:01.665Z,12.38
2023-05-17T05:45:01.537Z,12.46
2023-05-17T05:46:01.529Z,12.46
2023-05-17T05:47:01.513Z,12.44
2023-05-17T05:48:01.740Z,12.48
2023-05-17T05:49:01.706Z,12.44
2023-05-17T05:50:01.489Z,12.53
2023-05-17T05:51:01.506Z,12.50
2023-05-17T05:52:01.467Z,12.54
2023-05-17T05:53:10.817Z,12.62
2023-05-17T05:54:02.471Z,12.59
2023-05-17T05:55:01.554Z,12.58
2023-05-17T05:56:01.416Z,12.65
2023-05-17T05:57:01.400Z,12.61
2023-05-17T05:58:01.399Z,12.59
2023-05-17T05:59:01.422Z,12.72
2023-05-17T06:00:01.575Z,12.63
2023-05-17T06:01:02.807Z,12.72
2023-05-17T06:02:01.410Z,12.68
2023-05-17T06:03:01.380Z,12.69
2023-05-17T06:04:01.363Z,12.73
2023-05-17T06:05:01.322Z,12.80
2023-05-17T06:06:01.442Z,12.80
2023-05-17T06:07:01.474Z,12.77
2023-05-17T06:08:01.288Z,12.88
2023-05-17T06:09:01.271Z,12.84
2023-05-17T06:10:01.271Z,12.90
2023-05-17T06:11:01.287Z,12.88
2023-05-17T06:12:01.919Z,12.95
2023-05-17T06:13:01.241Z,12.98
2023-05-17T06:14:01.228Z,12.96
2023-05-17T06:15:01.233Z,12.93
2023-05-17T06:16:01.278Z,12.99
2023-05-17T06:17:01.191Z,13.01
2023-05-17T06:18:01.332Z,13.01
2023-05-17T06:19:01.355Z,13.05
2023-05-17T06:20:01.219Z,13.02
2023-05-17T06:21:01.289Z,13.08
2023-05-17T06:22:01.217Z,13.13
2023-05-17T06:23:01.129Z,13.16
2023-05-17T06:24:02.842Z,13.13
2023-05-17T06:25:01.109Z,13.17
2023-05-17T06:26:01.191Z,13.13
2023-05-17T06:27:01.093Z,13.21
2023-05-17T06:28:01.078Z,13.23
2023-05-17T06:29:01.091Z,13.17
2023-05-17T06:30:01.124Z,13.13
2023-05-17T06:31:01.033Z,13.23
2023-05-17T06:32:01.147Z,13.20
2023-05-17T06:33:01.112Z,13.26
2023-05-17T06:34:01.032Z,13.40
2023-05-17T06:35:00.991Z,13.29
2023-05-17T06:37:01.008Z,13.40
2023-05-17T06:38:00.961Z,13.30
2023-05-17T06:39:00.950Z,13.32
2023-05-17T06:40:10.148Z,13.35
2023-05-17T06:41:01.923Z,13.42
2023-05-17T06:42:00.945Z,13.40
2023-05-17T06:43:00.929Z,13.49
2023-05-17T06:44:00.897Z,13.46
2023-05-17T06:45:00.909Z,13.47
2023-05-17T06:46:00.873Z,13.49
2023-05-17T06:47:00.894Z,13.53
2023-05-17T06:48:01.038Z,13.57
2023-05-17T06:49:01.019Z,13.61
2023-05-17T06:50:00.825Z,13.60
2023-05-17T06:51:00.811Z,13.67
2023-05-17T06:52:00.827Z,13.64
2023-05-17T06:53:00.811Z,13.61
2023-05-17T06:54:00.773Z,13.68
2023-05-17T06:55:00.786Z,13.64
2023-05-17T06:56:00.770Z,13.73
2023-05-17T06:57:00.756Z,13.78
2023-05-17T06:58:00.792Z,13.67
2023-05-17T06:59:00.741Z,13.78
2023-05-17T07:00:00.773Z,13.73
2023-05-17T07:01:00.702Z,13.79
2023-05-17T07:02:00.697Z,13.82
2023-05-17T07:03:00.838Z,13.83
2023-05-17T07:04:00.937Z,13.85
2023-05-17T07:05:00.728Z,13.86
2023-05-17T07:06:00.661Z,13.86
2023-05-17T07:07:00.655Z,14.05
2023-05-17T07:08:00.653Z,13.90
2023-05-17T07:09:00.616Z,13.98
2023-05-17T07:10:00.605Z,14.00
2023-05-17T07:11:00.610Z,14.01
2023-05-17T07:12:00.620Z,14.05
2023-05-17T07:13:00.620Z,14.04
2023-05-17T07:14:00.573Z,14.08
2023-05-17T07:15:00.572Z,14.13
2023-05-17T07:16:00.575Z,14.21
2023-05-17T07:17:00.565Z,14.19
2023-05-17T07:18:01.496Z,14.26
2023-05-17T07:19:00.678Z,14.23
2023-05-17T07:20:00.724Z,14.33
2023-05-17T07:21:00.492Z,14.34
2023-05-17T07:22:00.498Z,14.33
2023-05-17T07:23:00.464Z,14.38
2023-05-17T07:24:00.499Z,14.40
2023-05-17T07:25:00.481Z,14.45
2023-05-17T07:26:00.449Z,14.41
2023-05-17T07:27:00.423Z,14.48
2023-05-17T07:28:00.430Z,14.53
2023-05-17T07:29:00.411Z,14.53
2023-05-17T07:30:00.425Z,14.63
2023-05-17T07:31:00.375Z,14.56
2023-05-17T07:32:00.384Z,14.56
2023-05-17T07:33:00.376Z,14.63
2023-05-17T07:34:00.379Z,14.61
2023-05-17T07:35:00.357Z,14.61
2023-05-17T07:36:00.490Z,14.74
2023-05-17T07:37:00.310Z,14.77
2023-05-17T07:38:00.319Z,14.78
2023-05-17T07:39:00.305Z,14.86
2023-05-17T07:40:00.348Z,14.93
2023-05-17T07:41:00.301Z,14.96
2023-05-17T07:42:00.275Z,14.87
2023-05-17T07:43:00.246Z,15.01
2023-05-17T07:44:00.247Z,15.07
2023-05-17T07:45:00.224Z,15.03
2023-05-17T07:46:00.254Z,15.08
2023-05-17T07:47:00.962Z,15.19
2023-05-17T07:48:00.342Z,15.19
2023-05-17T07:49:00.289Z,15.14
2023-05-17T07:50:00.216Z,15.25
2023-05-17T07:51:00.191Z,15.22
2023-05-17T07:52:00.194Z,15.32
2023-05-17T07:53:00.157Z,15.30
2023-05-17T07:54:00.150Z,15.30
2023-05-17T07:55:00.113Z,15.40
2023-05-17T07:56:00.136Z,15.44
2023-05-17T07:57:00.091Z,15.52
2023-05-17T07:58:00.107Z,15.50
2023-05-17T07:59:00.074Z,15.52
2023-05-17T08:00:00.068Z,15.58
2023-05-17T08:01:00.072Z,15.54
2023-05-17T08:02:00.048Z,15.68
2023-05-17T08:03:00.119Z,15.69
2023-05-17T08:04:00.052Z,15.77
2023-05-17T08:05:00.281Z,15.72
2023-05-17T08:06:00.075Z,15.80
2023-05-17T08:06:59.986Z,15.87
2023-05-17T08:08:00.134Z,15.84
2023-05-17T08:08:59.973Z,15.98
2023-05-17T08:09:59.990Z,16.00
2023-05-17T08:10:59.955Z,16.06
2023-05-17T08:11:59.945Z,16.05
2023-05-17T08:12:59.931Z,16.09
2023-05-17T08:13:59.918Z,16.14
2023-05-17T08:14:59.921Z,16.24
2023-05-17T08:16:08.960Z,16.22
2023-05-17T08:17:00.911Z,16.33
2023-05-17T08:18:03.736Z,16.39
2023-05-17T08:19:00.138Z,16.42
2023-05-17T08:19:59.923Z,16.42
2023-05-17T08:20:59.834Z,16.46
2023-05-17T08:21:59.835Z,16.57
2023-05-17T08:22:59.818Z,16.57
2023-05-17T08:24:01.129Z,16.55
2023-05-17T08:24:59.816Z,16.69
2023-05-17T08:25:59.782Z,16.65
2023-05-17T08:26:59.765Z,16.67
2023-05-17T08:27:59.771Z,16.74
2023-05-17T08:28:59.748Z,16.76
2023-05-17T08:29:59.767Z,16.76
2023-05-17T08:30:59.752Z,16.84
2023-05-17T08:31:59.722Z,16.84
2023-05-17T08:32:59.794Z,16.98
2023-05-17T08:33:59.815Z,16.99
2023-05-17T08:34:59.698Z,17.16
2023-05-17T08:35:59.697Z,17.12
2023-05-17T08:36:59.743Z,17.17
2023-05-17T08:37:59.685Z,17.13
2023-05-17T08:38:59.634Z,17.20
2023-05-17T08:40:00.001Z,17.22
2023-05-17T08:40:59.617Z,17.31
2023-05-17T08:41:59.741Z,17.37
2023-05-17T08:42:59.612Z,17.35
2023-05-17T08:43:59.603Z,17.38
2023-05-17T08:44:59.596Z,17.45
2023-05-17T08:45:59.565Z,17.49
2023-05-17T08:46:59.560Z,17.53
2023-05-17T08:47:59.568Z,17.59
2023-05-17T08:48:59.615Z,17.63
2023-05-17T08:49:59.549Z,17.59
2023-05-17T08:50:59.512Z,17.69
2023-05-17T08:51:59.509Z,17.84
2023-05-17T08:52:59.510Z,17.88
2023-05-17T08:53:59.479Z,17.84
2023-05-17T08:54:59.487Z,17.91
2023-05-17T08:55:59.483Z,17.94
2023-05-17T08:56:59.455Z,18.01
2023-05-17T08:57:59.444Z,18.11
2023-05-17T08:58:59.443Z,18.11
2023-05-17T08:59:59.425Z,18.12
2023-05-17T09:00:59.400Z,18.23
2023-05-17T09:01:59.393Z,18.30
2023-05-17T09:02:59.420Z,18.30
2023-05-17T09:03:59.394Z,18.33
2023-05-17T09:04:59.415Z,18.34
2023-05-17T09:05:59.467Z,18.42
2023-05-17T09:06:59.338Z,18.42
2023-05-17T09:07:59.332Z,18.48
2023-05-17T09:08:59.339Z,18.54
2023-05-17T09:09:59.300Z,18.52
2023-05-17T09:10:59.304Z,18.71
2023-05-17T09:11:59.312Z,18.68
2023-05-17T09:12:59.269Z,18.75
2023-05-17T09:13:59.285Z,18.85
2023-05-17T09:14:59.251Z,18.83
2023-05-17T09:15:59.246Z,19.07
2023-05-17T09:16:59.246Z,19.07
2023-05-17T09:17:59.382Z,19.09
2023-05-17T09:18:59.430Z,19.23
2023-05-17T09:19:59.443Z,19.15
2023-05-17T09:20:59.184Z,19.37
2023-05-17T09:21:59.200Z,19.44
2023-05-17T09:22:59.163Z,19.50
2023-05-17T09:24:06.211Z,19.62
2023-05-17T09:25:00.193Z,19.72
2023-05-17T09:25:59.128Z,19.87
2023-05-17T09:26:59.114Z,19.92
2023-05-17T09:27:59.154Z,20.19
2023-05-17T09:28:59.103Z,20.23
2023-05-17T09:29:59.118Z,20.25
2023-05-17T09:30:59.092Z,20.50
2023-05-17T09:31:59.078Z,20.63
2023-05-17T09:32:59.050Z,20.77
2023-05-17T09:33:59.108Z,20.93
2023-05-17T09:34:59.054Z,21.10
2023-05-17T09:35:59.031Z,21.20
2023-05-17T09:36:59.012Z,21.30
2023-05-17T09:37:59.024Z,21.32
2023-05-17T09:38:59.080Z,21.43
2023-05-17T09:39:58.984Z,21.53
2023-05-17T09:40:58.973Z,21.59
2023-05-17T09:41:58.986Z,21.69
2023-05-17T09:42:58.986Z,21.69
2023-05-17T09:43:58.980Z,21.81
2023-05-17T09:44:58.937Z,21.88
2023-05-17T09:45:58.918Z,21.94
2023-05-17T09:46:58.904Z,21.94
2023-05-17T09:47:59.040Z,21.94
2023-05-17T09:48:59.033Z,22.00
2023-05-17T09:49:58.878Z,22.16
2023-05-17T09:50:58.888Z,22.27
2023-05-17T09:51:58.848Z,22.31
2023-05-17T09:52:58.867Z,22.37
2023-05-17T09:53:58.838Z,22.40
2023-05-17T09:54:58.838Z,22.48
2023-05-17T09:55:58.849Z,22.49
2023-05-17T09:56:58.799Z,22.49
2023-05-17T09:57:58.791Z,22.66
2023-05-17T09:58:58.810Z,22.77
2023-05-17T09:59:58.783Z,22.83
2023-05-17T10:00:58.793Z,22.83
2023-05-17T10:01:58.789Z,22.88
2023-05-17T10:02:58.839Z,22.98
2023-05-17T10:03:58.753Z,23.10
2023-05-17T10:04:58.741Z,23.17
2023-05-17T10:05:58.704Z,23.22
2023-05-17T10:06:58.721Z,23.37
2023-05-17T10:07:58.701Z,23.41
2023-05-17T10:08:58.681Z,23.44
2023-05-17T10:09:58.661Z,23.55
2023-05-17T10:10:58.660Z,23.64
2023-05-17T10:11:58.670Z,23.73
2023-05-17T10:12:58.642Z,23.78
2023-05-17T10:13:58.625Z,23.92
2023-05-17T10:14:58.676Z,23.89
2023-05-17T10:15:58.635Z,24.04
2023-05-17T10:16:58.633Z,24.04
2023-05-17T10:17:58.603Z,24.10
2023-05-17T10:18:58.649Z,24.16
2023-05-17T10:19:58.694Z,24.25
2023-05-17T10:20:58.557Z,24.36
2023-05-17T10:22:05.209Z,24.37
2023-05-17T10:22:59.536Z,24.45
2023-05-17T10:23:58.511Z,24.41
2023-05-17T10:24:58.535Z,24.53
2023-05-17T10:25:58.511Z,24.60
2023-05-17T10:26:58.515Z,24.58
2023-05-17T10:27:58.472Z,24.55
2023-05-17T10:28:58.461Z,24.59
2023-05-17T10:29:58.458Z,24.65
2023-05-17T10:30:58.446Z,24.65
2023-05-17T10:31:58.480Z,24.75
2023-05-17T10:32:58.537Z,24.74
2023-05-17T10:33:58.445Z,24.75
2023-05-17T10:35:10.190Z,24.76
2023-05-17T10:35:59.390Z,24.81
2023-05-17T10:36:58.376Z,24.82
2023-05-17T10:37:58.408Z,24.84
2023-05-17T10:38:58.371Z,24.79
2023-05-17T10:39:58.341Z,24.81
2023-05-17T10:40:59.864Z,24.82
2023-05-17T10:42:13.793Z,24.86
2023-05-17T10:42:59.336Z,24.94
2023-05-17T10:43:58.304Z,24.96
2023-05-17T10:44:58.310Z,24.93
2023-05-17T10:45:58.313Z,24.96
2023-05-17T10:46:58.277Z,25.03
2023-05-17T10:47:59.727Z,25.01
2023-05-17T10:48:58.336Z,25.01
2023-05-17T10:49:58.233Z,25.06
2023-05-17T10:51:01.793Z,25.03
2023-05-17T10:51:58.209Z,25.04
2023-05-17T10:52:58.247Z,25.09
2023-05-17T10:53:58.192Z,25.16
2023-05-17T10:54:58.192Z,25.16
2023-05-17T10:55:58.173Z,25.14
2023-05-17T10:56:58.189Z,25.19
2023-05-17T10:57:58.157Z,25.15
2023-05-17T10:58:58.144Z,25.19
2023-05-17T10:59:58.126Z,25.26
2023-05-17T11:00:58.121Z,25.26
2023-05-17T11:01:58.129Z,25.31
2023-05-17T11:02:58.213Z,25.36
2023-05-17T11:03:58.098Z,25.31
2023-05-17T11:04:58.185Z,25.38
2023-05-17T11:05:58.173Z,25.37
2023-05-17T11:06:58.058Z,25.43
2023-05-17T11:07:58.036Z,25.38
2023-05-17T11:08:58.030Z,25.43
2023-05-17T11:09:58.026Z,25.46
2023-05-17T11:10:58.019Z,25.51
2023-05-17T11:11:58.016Z,25.56
2023-05-17T11:12:58.006Z,25.48
2023-05-17T11:13:57.983Z,25.61
2023-05-17T11:14:58.011Z,25.56
2023-05-17T11:15:57.963Z,25.67
2023-05-17T11:16:58.316Z,25.68
2023-05-17T11:17:57.978Z,25.68
2023-05-17T11:18:58.131Z,25.71
2023-05-17T11:19:58.139Z,25.70
2023-05-17T11:20:57.990Z,25.74
2023-05-17T11:21:57.901Z,25.85
2023-05-17T11:22:57.891Z,25.86
2023-05-17T11:23:57.876Z,25.82
2023-05-17T11:24:57.966Z,25.92
2023-05-17T11:26:02.932Z,25.95
2023-05-17T11:26:58.847Z,25.86
2023-05-17T11:27:57.835Z,26.05
2023-05-17T11:28:57.845Z,26.07
2023-05-17T11:29:57.819Z,26.08
2023-05-17T11:30:57.833Z,26.20
2023-05-17T11:31:57.796Z,26.23
2023-05-17T11:32:57.833Z,26.20
2023-05-17T11:33:57.789Z,26.31
2023-05-17T11:34:57.777Z,26.39
2023-05-17T11:35:57.855Z,26.39
2023-05-17T11:36:57.756Z,26.43
2023-05-17T11:37:57.728Z,26.51
2023-05-17T11:39:07.500Z,26.53
2023-05-17T11:39:58.734Z,26.58
2023-05-17T11:40:57.742Z,26.65
2023-05-17T11:41:57.700Z,26.67
2023-05-17T11:42:57.679Z,26.73
2023-05-17T11:43:57.663Z,26.76
2023-05-17T11:44:57.658Z,26.73
2023-05-17T11:45:57.784Z,26.79
2023-05-17T11:46:57.676Z,26.82
2023-05-17T11:47:57.720Z,26.86
2023-05-17T11:48:57.737Z,26.95
2023-05-17T11:49:57.598Z,27.03
2023-05-17T11:50:58.931Z,27.05
2023-05-17T11:51:57.614Z,27.08
2023-05-17T11:52:57.573Z,27.08
2023-05-17T11:53:57.574Z,27.15
2023-05-17T11:54:57.558Z,27.23
2023-05-17T11:55:57.531Z,27.26
2023-05-17T11:56:57.526Z,27.20
2023-05-17T11:57:57.510Z,27.31
2023-05-17T11:58:57.530Z,27.45
2023-05-17T11:59:57.494Z,27.32
2023-05-17T12:00:57.491Z,27.40
2023-05-17T12:01:57.472Z,27.49
2023-05-17T12:02:57.502Z,27.53
2023-05-17T12:03:57.473Z,27.61
2023-05-17T12:04:57.517Z,27.57
2023-05-17T12:05:57.451Z,27.63
2023-05-17T12:06:57.427Z,27.72
2023-05-17T12:07:57.438Z,27.76
2023-05-17T12:08:57.405Z,27.69
2023-05-17T12:09:57.406Z,27.88
2023-05-17T12:10:57.375Z,27.80
2023-05-17T12:11:57.364Z,27.78
2023-05-17T12:12:57.349Z,27.91
2023-05-17T12:13:57.370Z,27.93
2023-05-17T12:14:57.363Z,27.91
2023-05-17T12:15:57.320Z,27.97
2023-05-17T12:16:57.312Z,28.05
2023-05-17T12:17:57.439Z,28.05
2023-05-17T12:18:57.468Z,28.12
2023-05-17T12:19:57.353Z,28.00
2023-05-17T12:20:57.317Z,28.20
2023-05-17T12:21:57.263Z,28.16
2023-05-17T12:22:57.300Z,28.19
2023-05-17T12:23:57.271Z,28.10
2023-05-17T12:24:57.278Z,28.24
2023-05-17T12:25:57.213Z,28.25
2023-05-17T12:26:57.209Z,28.28
2023-05-17T12:27:57.194Z,28.28
2023-05-17T12:28:57.179Z,28.37
2023-05-17T12:29:57.196Z,28.34
2023-05-17T12:30:57.188Z,28.32
2023-05-17T12:31:57.151Z,28.42
2023-05-17T12:32:57.254Z,28.42
2023-05-17T12:33:57.150Z,28.44
2023-05-17T12:34:57.126Z,28.37
2023-05-17T12:35:57.126Z,28.52
2023-05-17T12:36:57.100Z,28.47
2023-05-17T12:37:57.088Z,28.52
2023-05-17T12:38:57.079Z,28.52
2023-05-17T12:39:57.090Z,28.65
2023-05-17T12:40:57.076Z,28.56
2023-05-17T12:41:57.087Z,28.56
2023-05-17T12:42:57.029Z,28.59
2023-05-17T12:44:13.175Z,28.64
2023-05-17T12:44:58.010Z,28.71
2023-05-17T12:45:56.994Z,28.65
2023-05-17T12:46:56.983Z,28.66
2023-05-17T12:47:56.989Z,28.61
2023-05-17T12:48:57.029Z,28.74
2023-05-17T12:49:57.025Z,28.72
2023-05-17T12:50:56.953Z,28.79
2023-05-17T12:51:57.023Z,28.84
2023-05-17T12:52:56.930Z,28.87